Time;durP1;ratioP1;P1;durP2;ratioP2;P2;SDS_P1;SDS_P2;PMS_P1;PMS_P2;Temp;Humidity;BMP_temperature;BMP_pressure;BME280_temperature;BME280_humidity;BME280_pressure;Samples;Min_cycle;Max_cycle;Signal;HPM_P1;HPM_P2
2022/03/05 00:00:43;;;;;;;;;;;3.90;64.50;;;;;;2666930;52;20065;-77
2022/03/05 00:03:10;;;;;;;;;;;3.90;64.40;;;;;;2407061;56;20143;-77
2022/03/05 00:05:37;;;;;;;;;;;3.90;64.30;;;;;;2406548;56;20064;-77
2022/03/05 00:08:03;;;;;;;;;;;3.80;64.30;;;;;;2407026;56;20140;-75
2022/03/05 00:10:30;;;;;;;;;;;3.80;64.10;;;;;;2406324;56;20363;-77
2022/03/05 00:12:57;;;;;;;;;;;3.80;64.00;;;;;;2405440;56;20319;-77
2022/03/05 00:15:24;;;;;;;;;;;3.80;63.90;;;;;;2406663;56;20076;-77
2022/03/05 00:17:50;;;;;;;;;;;3.70;63.70;;;;;;2667671;52;20304;-77
2022/03/05 00:20:18;;;;;;;;;;;3.70;63.60;;;;;;2406589;56;20063;-77
2022/03/05 00:22:45;;;;;;;;;;;3.70;63.70;;;;;;2407178;56;20414;-77
2022/03/05 00:25:12;;;;;;;;;;;3.70;63.70;;;;;;2406383;56;20072;-77
2022/03/05 00:27:39;;;;;;;;;;;3.60;63.80;;;;;;2406179;56;20064;-77
2022/03/05 00:30:07;;;;;;;;;;;3.60;64.10;;;;;;2405501;56;20069;-77
2022/03/05 00:32:34;;;;;;;;;;;3.50;64.10;;;;;;2406578;56;20117;-77
2022/03/05 00:35:00;;;;;;;;;;;3.50;64.10;;;;;;2665750;52;20354;-77
2022/03/05 00:37:27;;;;;;;;;;;3.50;64.00;;;;;;2406072;56;20109;-77
2022/03/05 00:39:53;;;;;;;;;;;3.50;63.80;;;;;;2405257;56;20088;-77
2022/03/05 00:42:20;;;;;;;;;;;3.40;63.70;;;;;;2405752;56;20105;-77
2022/03/05 00:44:46;;;;;;;;;;;3.40;63.60;;;;;;2404998;56;20056;-77
2022/03/05 00:47:13;;;;;;;;;;;3.40;63.60;;;;;;2405810;56;20064;-77
2022/03/05 00:52:08;;;;;;;;;;;3.30;63.60;;;;;;2396932;55;20135;-74
2022/03/05 00:54:34;;;;;;;;;;;3.30;63.60;;;;;;2392256;56;20144;-74
2022/03/05 00:57:01;;;;;;;;;;;3.30;63.50;;;;;;2392890;56;20120;-73
2022/03/05 00:59:27;;;;;;;;;;;3.30;63.60;;;;;;2393199;56;20101;-74
2022/03/05 01:01:54;;;;;;;;;;;3.20;63.70;;;;;;2393081;56;20401;-73
2022/03/05 01:04:21;;;;;;;;;;;3.20;63.80;;;;;;2367705;56;20319;-74
2022/03/05 01:06:47;;;;;;;;;;;3.20;63.70;;;;;;2393666;56;20407;-74
2022/03/05 01:09:14;;;;;;;;;;;3.20;63.40;;;;;;2392807;56;20351;-73
2022/03/05 01:11:40;;;;;;;;;;;3.20;63.30;;;;;;2393528;56;20233;-73
2022/03/05 01:14:07;;;;;;;;;;;3.20;63.30;;;;;;2393537;56;20129;-74
2022/03/05 01:16:34;;;;;;;;;;;3.10;63.50;;;;;;2390501;56;20069;-72
2022/03/05 01:19:01;;;;;;;;;;;3.10;63.50;;;;;;2392919;56;20116;-74
2022/03/05 01:21:27;;;;;;;;;;;3.00;63.40;;;;;;2393419;56;20324;-73
2022/03/05 01:23:54;;;;;;;;;;;3.00;63.40;;;;;;2393248;56;20073;-73
2022/03/05 01:26:21;;;;;;;;;;;3.00;63.60;;;;;;2393456;56;20149;-74
2022/03/05 01:28:47;;;;;;;;;;;3.00;64.40;;;;;;2370715;56;20296;-74
2022/03/05 01:33:50;;;;;;;;;;;3.00;63.90;;;;;;2359617;57;20069;-72
2022/03/05 01:36:16;;;;;;;;;;;2.90;63.80;;;;;;2378218;56;20085;-72
2022/03/05 01:38:42;;;;;;;;;;;2.90;63.80;;;;;;2378156;56;20130;-72
2022/03/05 01:41:09;;;;;;;;;;;2.90;63.80;;;;;;2618581;52;20137;-73
2022/03/05 01:43:36;;;;;;;;;;;2.80;63.80;;;;;;2350534;57;20148;-73
2022/03/05 01:46:02;;;;;;;;;;;2.80;63.80;;;;;;2597732;53;20086;-72
2022/03/05 01:48:29;;;;;;;;;;;2.80;63.70;;;;;;2350155;57;20071;-72
2022/03/05 01:50:55;;;;;;;;;;;2.80;63.60;;;;;;2350393;57;20320;-72
2022/03/05 01:53:22;;;;;;;;;;;2.80;63.70;;;;;;2598397;52;20070;-72
2022/03/05 01:55:48;;;;;;;;;;;2.70;63.80;;;;;;2350838;57;20130;-72
2022/03/05 01:58:15;;;;;;;;;;;2.70;64.00;;;;;;2343288;57;20129;-73
2022/03/05 02:00:41;;;;;;;;;;;2.70;64.00;;;;;;2350393;57;20070;-72
2022/03/05 02:03:08;;;;;;;;;;;2.70;64.20;;;;;;2597879;53;20353;-72
2022/03/05 02:05:34;;;;;;;;;;;2.70;64.20;;;;;;2350214;57;20122;-72
2022/03/05 02:08:01;;;;;;;;;;;2.60;64.40;;;;;;2597383;53;20074;-73
2022/03/05 02:10:27;;;;;;;;;;;2.70;64.40;;;;;;2350324;57;20170;-72
2022/03/05 02:12:54;;;;;;;;;;;2.60;64.50;;;;;;2347628;57;20074;-73
2022/03/05 02:15:20;;;;;;;;;;;2.60;64.50;;;;;;2350522;57;20137;-72
2022/03/05 02:17:47;;;;;;;;;;;2.60;64.60;;;;;;2349545;57;20066;-72
2022/03/05 02:20:13;;;;;;;;;;;2.60;64.70;;;;;;2349483;57;20157;-72
2022/03/05 02:25:50;;;;;;;;;;;2.50;64.30;;;;;;2573605;53;20126;-72
2022/03/05 02:28:17;;;;;;;;;;;2.60;64.40;;;;;;2350787;57;20062;-73
2022/03/05 02:33:47;;;;;;;;;;;2.60;64.10;;;;;;2386126;53;20108;-73
2022/03/05 02:36:16;;;;;;;;;;;2.70;63.90;;;;;;2296459;58;20310;-73
2022/03/05 02:38:43;;;;;;;;;;;2.80;63.60;;;;;;2297973;58;20144;-72
2022/03/05 02:41:09;;;;;;;;;;;2.70;63.10;;;;;;2535731;54;20067;-72
2022/03/05 02:43:36;;;;;;;;;;;2.60;62.90;;;;;;2319722;58;20115;-72
2022/03/05 02:46:02;;;;;;;;;;;2.60;62.90;;;;;;2319079;58;20087;-71
2022/03/05 02:48:29;;;;;;;;;;;2.60;63.10;;;;;;2294401;58;20072;-72
2022/03/05 02:50:56;;;;;;;;;;;2.50;63.30;;;;;;2318643;58;20079;-72
2022/03/05 02:53:22;;;;;;;;;;;2.50;64.10;;;;;;2559260;54;20127;-72
2022/03/05 02:55:49;;;;;;;;;;;2.50;63.30;;;;;;2317598;58;20075;-71
2022/03/05 02:58:15;;;;;;;;;;;2.50;63.50;;;;;;2318658;58;20123;-72
2022/03/05 03:00:42;;;;;;;;;;;2.40;63.60;;;;;;2318770;58;20198;-72
2022/03/05 03:03:08;;;;;;;;;;;2.40;63.60;;;;;;2319004;58;20382;-73
2022/03/05 03:05:35;;;;;;;;;;;2.40;63.50;;;;;;2319003;58;20067;-72
2022/03/05 03:08:01;;;;;;;;;;;2.30;63.30;;;;;;2318559;58;20075;-72
2022/03/05 03:13:31;;;;;;;;;;;2.30;63.00;;;;;;2312192;54;20132;-72
2022/03/05 03:15:57;;;;;;;;;;;2.30;62.80;;;;;;2476885;56;20114;-72
2022/03/05 03:18:42;;;;;;;;;;;2.30;62.60;;;;;;2200801;60;20351;-73
2022/03/05 03:21:09;;;;;;;;;;;2.30;62.80;;;;;;2250827;60;20066;-72
2022/03/05 03:23:35;;;;;;;;;;;2.40;63.10;;;;;;2475932;56;20126;-73
2022/03/05 03:26:02;;;;;;;;;;;2.40;62.90;;;;;;2475277;56;20069;-73
2022/03/05 03:28:29;;;;;;;;;;;2.30;63.70;;;;;;2250143;60;20085;-73
2022/03/05 03:30:55;;;;;;;;;;;2.30;63.10;;;;;;2474910;56;20089;-73
2022/03/05 03:33:22;;;;;;;;;;;2.20;63.20;;;;;;2249119;60;20090;-72
2022/03/05 03:35:48;;;;;;;;;;;2.10;63.30;;;;;;2250202;60;20128;-73
2022/03/05 03:38:15;;;;;;;;;;;2.10;63.50;;;;;;2249653;60;20131;-72
2022/03/05 03:40:41;;;;;;;;;;;2.10;63.40;;;;;;2249048;60;20145;-73
2022/03/05 03:43:08;;;;;;;;;;;2.10;63.60;;;;;;2249471;60;20081;-73
2022/03/05 03:45:34;;;;;;;;;;;2.00;63.70;;;;;;2249968;60;20127;-73
2022/03/05 03:48:01;;;;;;;;;;;2.00;64.50;;;;;;2249872;60;20130;-73
2022/03/05 03:50:27;;;;;;;;;;;2.00;63.80;;;;;;2227333;60;20109;-72
2022/03/05 03:52:54;;;;;;;;;;;2.00;64.40;;;;;;2249011;60;20124;-72
2022/03/05 03:55:22;;;;;;;;;;;2.00;64.00;;;;;;2249860;60;20078;-72
2022/03/05 04:00:51;;;;;;;;;;;2.00;64.20;;;;;;2445066;56;20349;-72
2022/03/05 04:03:17;;;;;;;;;;;2.10;64.30;;;;;;2250051;60;20089;-71
2022/03/05 04:05:44;;;;;;;;;;;2.10;64.20;;;;;;2250052;60;20074;-72
2022/03/05 04:10:55;;;;;;;;;;;2.10;64.10;;;;;;2249575;60;20070;-72
2022/03/05 04:13:21;;;;;;;;;;;2.00;64.20;;;;;;2250011;60;20074;-71
2022/03/05 04:15:48;;;;;;;;;;;2.00;64.40;;;;;;2249460;60;20149;-72
2022/03/05 04:18:14;;;;;;;;;;;1.90;64.30;;;;;;2249714;60;20118;-71
2022/03/05 04:20:41;;;;;;;;;;;1.90;64.40;;;;;;2249180;60;20370;-72
2022/03/05 04:23:07;;;;;;;;;;;1.90;64.50;;;;;;2249571;60;20152;-72
2022/03/05 04:25:34;;;;;;;;;;;1.90;64.50;;;;;;2224575;60;20122;-72
2022/03/05 04:28:00;;;;;;;;;;;1.90;64.60;;;;;;2249426;60;20333;-73
2022/03/05 04:30:27;;;;;;;;;;;1.90;64.60;;;;;;2249465;60;20126;-73
2022/03/05 04:32:53;;;;;;;;;;;1.90;64.60;;;;;;2250141;60;20065;-72
2022/03/05 04:35:20;;;;;;;;;;;1.90;64.60;;;;;;2203983;60;20303;-73
2022/03/05 04:37:47;;;;;;;;;;;1.90;64.60;;;;;;2250232;60;20097;-73
2022/03/05 04:43:27;;;;;;;;;;;1.90;64.50;;;;;;2493405;54;20708;-73
2022/03/05 04:45:53;;;;;;;;;;;1.90;64.60;;;;;;2305481;58;20071;-72
2022/03/05 04:48:19;;;;;;;;;;;2.00;64.60;;;;;;2305540;58;20064;-72
2022/03/05 04:56:51;;;;;;;;;;;2.00;64.60;;;;;;2509743;54;71390;-78
2022/03/05 04:59:18;;;;;;;;;;;2.20;64.30;;;;;;2306210;58;20400;-77
2022/03/05 05:01:44;;;;;;;;;;;2.30;63.90;;;;;;2306791;58;20080;-78
2022/03/05 05:04:10;;;;;;;;;;;2.20;64.40;;;;;;2306600;58;20384;-79
2022/03/05 05:06:37;;;;;;;;;;;2.10;63.70;;;;;;2306977;58;20124;-78
2022/03/05 05:09:03;;;;;;;;;;;2.00;64.10;;;;;;2306776;58;20092;-77
2022/03/05 05:11:30;;;;;;;;;;;1.90;64.30;;;;;;2545034;54;20148;-77
2022/03/05 05:13:56;;;;;;;;;;;1.90;64.50;;;;;;2545653;54;20064;-78
2022/03/05 05:16:23;;;;;;;;;;;1.90;64.70;;;;;;2545827;54;20076;-78
2022/03/05 05:21:34;;;;;;;;;;;1.80;64.60;;;;;;2307437;58;20083;-79
2022/03/05 05:24:00;;;;;;;;;;;1.80;64.30;;;;;;2307183;58;20064;-78
2022/03/05 05:26:27;;;;;;;;;;;1.70;64.20;;;;;;2307312;58;20068;-77
2022/03/05 05:28:53;;;;;;;;;;;1.70;64.40;;;;;;2545422;54;20060;-78
2022/03/05 05:31:20;;;;;;;;;;;1.70;64.90;;;;;;2545536;54;20200;-77
2022/03/05 05:33:46;;;;;;;;;;;1.70;64.40;;;;;;2307085;58;20094;-78
2022/03/05 05:36:12;;;;;;;;;;;1.70;64.20;;;;;;2306882;58;20329;-79
2022/03/05 05:38:39;;;;;;;;;;;1.60;64.20;;;;;;2307101;58;20088;-78
2022/03/05 05:41:05;;;;;;;;;;;1.60;64.40;;;;;;2545523;54;20080;-78
2022/03/05 05:43:32;;;;;;;;;;;1.60;64.50;;;;;;2307113;58;20400;-77
2022/03/05 05:45:58;;;;;;;;;;;1.60;64.90;;;;;;2545826;54;20080;-77
2022/03/05 05:48:25;;;;;;;;;;;1.60;65.20;;;;;;2307597;58;20117;-79
2022/03/05 05:50:51;;;;;;;;;;;1.60;65.30;;;;;;2306671;58;20368;-78
2022/03/05 05:53:18;;;;;;;;;;;1.60;65.40;;;;;;2307119;58;20096;-79
2022/03/05 05:55:44;;;;;;;;;;;1.50;65.00;;;;;;2307469;58;20080;-78
2022/03/05 05:58:11;;;;;;;;;;;1.50;65.90;;;;;;2546174;54;20064;-77
2022/03/05 06:00:37;;;;;;;;;;;1.50;66.20;;;;;;2306579;58;20068;-78
2022/03/05 06:03:03;;;;;;;;;;;1.60;66.50;;;;;;2307324;58;20365;-79
2022/03/05 06:05:31;;;;;;;;;;;1.60;66.80;;;;;;2307350;58;20069;-79
2022/03/05 06:07:57;;;;;;;;;;;1.60;67.20;;;;;;2307579;58;20110;-79
2022/03/05 06:10:24;;;;;;;;;;;1.70;67.30;;;;;;2544595;54;20346;-78
2022/03/05 06:12:50;;;;;;;;;;;1.70;67.30;;;;;;2544285;54;20463;-78
2022/03/05 06:15:17;;;;;;;;;;;1.70;67.20;;;;;;2306839;58;20329;-79
2022/03/05 06:17:44;;;;;;;;;;;1.70;67.20;;;;;;2306838;58;20083;-78
2022/03/05 06:20:11;;;;;;;;;;;1.70;67.40;;;;;;2306161;58;20087;-79
2022/03/05 06:22:37;;;;;;;;;;;1.70;67.50;;;;;;2307489;58;20197;-79
2022/03/05 06:25:05;;;;;;;;;;;1.70;67.70;;;;;;2307299;58;20140;-79
2022/03/05 06:27:31;;;;;;;;;;;1.80;67.80;;;;;;2547452;54;20163;-79
2022/03/05 06:29:58;;;;;;;;;;;1.80;67.80;;;;;;2307935;58;20123;-77
2022/03/05 06:32:24;;;;;;;;;;;1.90;68.10;;;;;;2309023;58;20115;-80
2022/03/05 06:34:54;;;;;;;;;;;1.90;68.20;;;;;;2308239;58;20163;-78
2022/03/05 06:37:20;;;;;;;;;;;1.90;68.60;;;;;;2307312;58;20103;-77
2022/03/05 06:39:48;;;;;;;;;;;2.00;68.90;;;;;;2307025;58;20084;-78
2022/03/05 06:42:15;;;;;;;;;;;2.00;69.00;;;;;;2307288;58;20380;-77
2022/03/05 06:44:41;;;;;;;;;;;2.10;69.10;;;;;;2306671;58;20076;-77
2022/03/05 06:47:08;;;;;;;;;;;2.10;69.20;;;;;;2307504;58;20084;-77
2022/03/05 06:49:34;;;;;;;;;;;2.20;69.40;;;;;;2306818;58;20147;-77
2022/03/05 06:52:01;;;;;;;;;;;2.20;69.50;;;;;;2451361;53;74275;-83
2022/03/05 06:54:27;;;;;;;;;;;2.30;69.60;;;;;;2501186;55;20330;-83
2022/03/05 06:56:54;;;;;;;;;;;2.30;69.60;;;;;;2271104;59;20061;-81
2022/03/05 06:59:20;;;;;;;;;;;2.40;69.80;;;;;;2500610;55;20212;-81
2022/03/05 07:01:47;;;;;;;;;;;2.40;70.00;;;;;;2270784;59;20089;-83
2022/03/05 07:04:13;;;;;;;;;;;2.40;70.20;;;;;;2500126;55;20102;-82
2022/03/05 07:06:39;;;;;;;;;;;2.40;70.50;;;;;;2499790;55;20126;-81
2022/03/05 07:09:06;;;;;;;;;;;2.50;70.80;;;;;;2269230;59;20081;-79
2022/03/05 07:11:33;;;;;;;;;;;2.50;71.00;;;;;;2500079;55;20101;-82
2022/03/05 07:13:59;;;;;;;;;;;2.50;71.00;;;;;;2499608;55;20103;-80
2022/03/05 07:16:26;;;;;;;;;;;2.60;71.20;;;;;;2269757;59;20133;-81
2022/03/05 07:18:52;;;;;;;;;;;2.60;71.40;;;;;;2499392;55;20045;-81
2022/03/05 07:21:19;;;;;;;;;;;2.60;71.50;;;;;;2499674;55;20097;-81
2022/03/05 07:23:45;;;;;;;;;;;2.70;71.70;;;;;;2270005;59;20085;-81
2022/03/05 07:26:11;;;;;;;;;;;2.70;71.80;;;;;;2269422;59;20117;-81
2022/03/05 07:28:38;;;;;;;;;;;2.70;71.90;;;;;;2269775;59;20117;-80
2022/03/05 07:31:05;;;;;;;;;;;2.70;71.90;;;;;;2499114;55;20386;-81
2022/03/05 07:33:31;;;;;;;;;;;2.80;72.10;;;;;;2268894;59;20077;-81
2022/03/05 07:35:58;;;;;;;;;;;2.80;72.20;;;;;;2269466;59;20070;-80
2022/03/05 07:38:24;;;;;;;;;;;2.90;72.20;;;;;;2269749;59;20093;-81
2022/03/05 07:40:51;;;;;;;;;;;2.90;72.10;;;;;;2499285;55;20130;-80
2022/03/05 07:43:17;;;;;;;;;;;2.90;72.20;;;;;;2269246;59;20181;-82
2022/03/05 07:45:44;;;;;;;;;;;3.00;72.20;;;;;;2500060;55;20069;-82
2022/03/05 07:48:10;;;;;;;;;;;3.00;72.20;;;;;;2500178;55;20053;-83
2022/03/05 07:50:37;;;;;;;;;;;3.10;72.20;;;;;;2499223;55;20175;-81
2022/03/05 07:53:04;;;;;;;;;;;3.10;72.10;;;;;;2500164;55;20135;-82
2022/03/05 07:55:30;;;;;;;;;;;3.20;72.00;;;;;;2270227;59;20077;-82
2022/03/05 07:57:56;;;;;;;;;;;3.20;72.10;;;;;;2269474;59;20053;-84
2022/03/05 08:00:23;;;;;;;;;;;3.20;72.00;;;;;;2498851;55;20066;-81
2022/03/05 08:02:49;;;;;;;;;;;3.30;72.00;;;;;;2269286;59;20401;-83
2022/03/05 08:05:16;;;;;;;;;;;3.30;71.80;;;;;;2498486;55;20081;-83
2022/03/05 08:07:42;;;;;;;;;;;3.30;71.70;;;;;;2498534;55;20074;-81
2022/03/05 08:10:09;;;;;;;;;;;3.40;71.70;;;;;;2268437;59;20075;-81
2022/03/05 08:12:36;;;;;;;;;;;3.40;71.70;;;;;;2498640;55;20350;-80
2022/03/05 08:15:04;;;;;;;;;;;3.40;71.70;;;;;;2270437;59;20105;-83
2022/03/05 08:17:30;;;;;;;;;;;3.50;71.70;;;;;;2270376;59;20121;-82
2022/03/05 08:19:56;;;;;;;;;;;3.60;71.50;;;;;;2499908;55;20101;-82
2022/03/05 08:22:23;;;;;;;;;;;3.60;71.20;;;;;;2269381;59;20053;-82
2022/03/05 08:24:50;;;;;;;;;;;3.70;71.40;;;;;;2500110;55;20049;-82
2022/03/05 08:27:16;;;;;;;;;;;3.70;71.30;;;;;;2499753;55;20145;-80
2022/03/05 08:29:43;;;;;;;;;;;3.80;71.30;;;;;;2498525;55;20105;-80
2022/03/05 08:32:10;;;;;;;;;;;3.80;70.70;;;;;;2499670;55;20080;-80
2022/03/05 08:34:36;;;;;;;;;;;3.90;71.00;;;;;;2269781;59;20109;-81
2022/03/05 08:37:03;;;;;;;;;;;3.90;71.00;;;;;;2498746;55;20081;-80
2022/03/05 08:39:30;;;;;;;;;;;3.90;71.00;;;;;;2498607;55;20125;-80
2022/03/05 08:41:56;;;;;;;;;;;4.00;70.80;;;;;;2496201;55;20081;-81
2022/03/05 08:44:22;;;;;;;;;;;4.00;70.80;;;;;;2268932;59;20185;-81
2022/03/05 08:46:49;;;;;;;;;;;4.00;71.10;;;;;;2269426;59;20117;-81
2022/03/05 08:49:15;;;;;;;;;;;4.00;71.50;;;;;;2500807;55;20085;-81
2022/03/05 08:51:43;;;;;;;;;;;4.00;72.00;;;;;;2501076;55;20114;-81
2022/03/05 08:54:09;;;;;;;;;;;4.10;71.80;;;;;;2270887;59;20397;-83
2022/03/05 08:56:36;;;;;;;;;;;4.10;71.60;;;;;;2269701;59;20105;-79
2022/03/05 08:59:02;;;;;;;;;;;4.20;71.80;;;;;;2270793;59;20121;-81
2022/03/05 09:01:29;;;;;;;;;;;4.20;72.30;;;;;;2267098;59;20073;-79
2022/03/05 09:03:55;;;;;;;;;;;4.20;72.20;;;;;;2501778;55;20074;-81
2022/03/05 09:06:21;;;;;;;;;;;4.20;72.50;;;;;;2270284;59;20081;-82
2022/03/05 09:08:48;;;;;;;;;;;4.30;72.30;;;;;;2270155;59;20085;-80
2022/03/05 09:11:14;;;;;;;;;;;4.40;72.60;;;;;;2270858;59;20077;-81
2022/03/05 09:13:41;;;;;;;;;;;4.30;72.30;;;;;;2499685;55;20069;-80
2022/03/05 09:16:07;;;;;;;;;;;4.40;72.60;;;;;;2499461;55;20061;-79
2022/03/05 09:18:34;;;;;;;;;;;4.50;72.60;;;;;;2501009;55;20089;-81
2022/03/05 09:21:00;;;;;;;;;;;4.50;72.20;;;;;;2500109;55;20074;-82
2022/03/05 09:23:26;;;;;;;;;;;4.60;72.20;;;;;;2501098;55;20070;-82
2022/03/05 09:25:53;;;;;;;;;;;4.60;72.00;;;;;;2270490;59;20136;-81
2022/03/05 09:28:19;;;;;;;;;;;4.60;71.80;;;;;;2269810;59;20085;-80
2022/03/05 09:30:46;;;;;;;;;;;4.70;71.50;;;;;;2270084;59;20299;-82
2022/03/05 09:33:12;;;;;;;;;;;4.70;71.20;;;;;;2499608;55;20458;-80
2022/03/05 09:35:39;;;;;;;;;;;4.80;71.10;;;;;;2497958;55;20117;-81
2022/03/05 09:38:05;;;;;;;;;;;4.80;70.10;;;;;;2268744;59;21320;-81
2022/03/05 09:40:32;;;;;;;;;;;4.90;69.50;;;;;;2498424;55;20106;-82
2022/03/05 09:43:00;;;;;;;;;;;4.90;69.90;;;;;;2269606;59;20413;-80
2022/03/05 09:45:26;;;;;;;;;;;4.90;69.80;;;;;;2269486;59;20105;-83
2022/03/05 09:47:55;;;;;;;;;;;5.00;69.90;;;;;;2499130;55;20088;-79
2022/03/05 09:50:22;;;;;;;;;;;5.00;69.70;;;;;;2499098;55;20114;-81
2022/03/05 09:52:49;;;;;;;;;;;5.00;69.90;;;;;;2497378;55;20078;-82
2022/03/05 09:55:15;;;;;;;;;;;5.00;69.60;;;;;;2268779;59;20121;-79
2022/03/05 09:57:42;;;;;;;;;;;5.00;69.10;;;;;;2269380;59;20068;-81
2022/03/05 10:00:09;;;;;;;;;;;5.10;68.70;;;;;;2269384;59;20065;-81
2022/03/05 10:02:35;;;;;;;;;;;5.20;68.80;;;;;;2269546;59;20362;-81
2022/03/05 10:05:15;;;;;;;;;;;5.20;68.80;;;;;;2499627;55;20125;-81
2022/03/05 10:07:57;;;;;;;;;;;5.30;69.20;;;;;;2498805;55;20145;-82
2022/03/05 10:10:24;;;;;;;;;;;5.30;68.70;;;;;;2498882;55;20061;-83
2022/03/05 10:12:50;;;;;;;;;;;5.40;68.90;;;;;;2499857;55;20062;-83
2022/03/05 10:15:17;;;;;;;;;;;5.40;69.10;;;;;;2500024;55;20081;-83
2022/03/05 10:18:02;;;;;;;;;;;5.50;69.30;;;;;;2269756;59;20077;-82
2022/03/05 10:20:30;;;;;;;;;;;5.50;68.80;;;;;;2269008;59;20149;-82
2022/03/05 10:22:58;;;;;;;;;;;5.60;68.20;;;;;;2499447;55;20054;-82
2022/03/05 10:25:29;;;;;;;;;;;5.70;67.90;;;;;;2499191;55;20089;-82
2022/03/05 10:28:00;;;;;;;;;;;5.70;67.80;;;;;;2498099;55;20097;-82
2022/03/05 10:30:30;;;;;;;;;;;5.80;67.80;;;;;;2269181;59;20089;-82
2022/03/05 10:32:57;;;;;;;;;;;5.90;67.40;;;;;;2499790;55;20057;-82
2022/03/05 10:35:23;;;;;;;;;;;6.00;67.60;;;;;;2269709;59;20060;-82
2022/03/05 10:37:51;;;;;;;;;;;6.00;66.60;;;;;;2499371;55;20077;-82
2022/03/05 10:40:24;;;;;;;;;;;6.00;66.60;;;;;;2499160;55;20117;-82
2022/03/05 10:42:51;;;;;;;;;;;6.10;66.60;;;;;;2268887;59;20124;-82
2022/03/05 10:45:18;;;;;;;;;;;6.20;66.00;;;;;;2498880;55;20338;-81
2022/03/05 10:47:46;;;;;;;;;;;6.30;64.70;;;;;;2499568;55;20113;-82
2022/03/05 10:50:20;;;;;;;;;;;6.40;64.30;;;;;;2498861;55;20318;-82
2022/03/05 10:52:48;;;;;;;;;;;6.40;63.70;;;;;;2499526;55;20125;-83
2022/03/05 10:55:15;;;;;;;;;;;6.50;63.60;;;;;;2498220;55;20145;-82
2022/03/05 10:57:54;;;;;;;;;;;6.60;62.90;;;;;;2498814;55;20097;-82
2022/03/05 11:00:21;;;;;;;;;;;6.60;62.00;;;;;;2268919;59;20109;-82
2022/03/05 11:02:49;;;;;;;;;;;6.60;61.10;;;;;;2498480;55;20098;-81
2022/03/05 11:05:17;;;;;;;;;;;6.70;61.20;;;;;;2269515;59;20149;-79
2022/03/05 11:07:43;;;;;;;;;;;6.70;61.20;;;;;;2499390;55;20114;-82
2022/03/05 11:10:10;;;;;;;;;;;6.80;60.80;;;;;;2497950;55;20161;-82
2022/03/05 11:12:38;;;;;;;;;;;6.80;60.90;;;;;;2498955;55;20077;-83
2022/03/05 11:15:08;;;;;;;;;;;6.80;60.90;;;;;;2268570;59;20066;-82
2022/03/05 11:17:34;;;;;;;;;;;6.90;59.80;;;;;;2499090;55;20077;-82
2022/03/05 11:20:01;;;;;;;;;;;6.90;59.50;;;;;;2269038;59;20122;-80
2022/03/05 11:22:28;;;;;;;;;;;6.90;59.30;;;;;;2499150;55;20129;-82
2022/03/05 11:24:55;;;;;;;;;;;6.90;58.90;;;;;;2269264;59;20330;-82
2022/03/05 11:27:22;;;;;;;;;;;7.00;58.90;;;;;;2497902;55;20077;-81
2022/03/05 11:29:52;;;;;;;;;;;6.90;58.60;;;;;;2498803;55;20146;-81
2022/03/05 11:32:19;;;;;;;;;;;7.00;58.90;;;;;;2269168;59;20118;-81
2022/03/05 11:34:47;;;;;;;;;;;7.00;58.80;;;;;;2498585;55;20114;-82
2022/03/05 11:37:17;;;;;;;;;;;7.10;59.10;;;;;;2269545;59;20342;-81
2022/03/05 11:39:43;;;;;;;;;;;7.10;59.30;;;;;;2498746;55;20358;-83
2022/03/05 11:42:10;;;;;;;;;;;7.20;59.30;;;;;;2268876;59;20121;-82
2022/03/05 11:44:41;;;;;;;;;;;7.20;58.70;;;;;;2268971;59;20081;-81
2022/03/05 11:47:21;;;;;;;;;;;7.30;58.80;;;;;;2499393;55;20105;-80
2022/03/05 11:50:03;;;;;;;;;;;7.30;58.60;;;;;;2498121;55;20090;-81
2022/03/05 11:53:01;;;;;;;;;;;7.40;58.00;;;;;;2268625;59;20133;-81
2022/03/05 11:55:28;;;;;;;;;;;7.50;57.70;;;;;;2499047;55;20077;-80
2022/03/05 11:58:13;;;;;;;;;;;7.50;57.20;;;;;;2498913;55;20101;-81
2022/03/05 12:00:41;;;;;;;;;;;7.50;56.70;;;;;;2268891;59;20321;-81
2022/03/05 12:03:08;;;;;;;;;;;7.40;56.90;;;;;;2499220;55;20106;-81
2022/03/05 12:05:53;;;;;;;;;;;7.50;56.90;;;;;;2499017;55;20114;-82
2022/03/05 12:11:17;;;;;;;;;;;7.60;56.50;;;;;;2347366;57;20109;-76
2022/03/05 12:13:44;;;;;;;;;;;7.50;56.80;;;;;;2598808;52;20082;-78
2022/03/05 12:16:14;;;;;;;;;;;7.60;56.30;;;;;;2598999;53;20066;-77
2022/03/05 12:18:41;;;;;;;;;;;7.60;56.10;;;;;;2599156;53;20074;-78
2022/03/05 12:21:07;;;;;;;;;;;7.70;55.70;;;;;;2351059;57;20082;-78
2022/03/05 12:23:34;;;;;;;;;;;7.70;56.10;;;;;;2350865;57;20086;-77
2022/03/05 12:26:02;;;;;;;;;;;7.70;56.00;;;;;;2599362;53;20191;-77
2022/03/05 12:28:33;;;;;;;;;;;7.70;55.70;;;;;;2349625;57;20069;-77
2022/03/05 12:31:00;;;;;;;;;;;7.80;55.90;;;;;;2350298;57;20082;-78
2022/03/05 12:33:26;;;;;;;;;;;7.80;56.00;;;;;;2351272;57;20270;-78
2022/03/05 12:35:55;;;;;;;;;;;7.90;56.50;;;;;;2350573;57;20135;-78
2022/03/05 12:38:22;;;;;;;;;;;8.00;56.10;;;;;;2599461;52;20063;-77
2022/03/05 12:40:49;;;;;;;;;;;8.10;55.80;;;;;;2350876;57;20078;-76
2022/03/05 12:43:15;;;;;;;;;;;8.10;55.40;;;;;;2350911;57;20110;-76
2022/03/05 12:45:43;;;;;;;;;;;8.10;55.20;;;;;;2349183;57;20059;-76
2022/03/05 12:48:10;;;;;;;;;;;8.10;54.70;;;;;;2350369;57;20083;-76
2022/03/05 12:50:37;;;;;;;;;;;8.10;54.70;;;;;;2350466;57;20484;-76
2022/03/05 12:53:05;;;;;;;;;;;8.20;54.90;;;;;;2350754;57;20388;-75
2022/03/05 12:55:34;;;;;;;;;;;8.10;54.90;;;;;;2350801;57;20079;-76
2022/03/05 12:58:04;;;;;;;;;;;8.20;55.00;;;;;;2350040;57;20231;-76
2022/03/05 13:00:31;;;;;;;;;;;8.20;54.60;;;;;;2350132;57;20114;-76
2022/03/05 13:02:58;;;;;;;;;;;8.20;54.60;;;;;;2349996;57;20272;-76
2022/03/05 13:05:24;;;;;;;;;;;8.20;54.70;;;;;;2350984;57;20118;-77
2022/03/05 13:07:51;;;;;;;;;;;8.30;54.50;;;;;;2350785;57;20074;-76
2022/03/05 13:10:17;;;;;;;;;;;8.30;54.60;;;;;;2350370;57;20082;-76
2022/03/05 13:12:44;;;;;;;;;;;8.40;54.40;;;;;;2350749;57;20356;-76
2022/03/05 13:15:22;;;;;;;;;;;8.40;53.70;;;;;;2350937;57;20066;-77
2022/03/05 13:17:48;;;;;;;;;;;8.40;53.90;;;;;;2351168;57;20110;-76
2022/03/05 13:20:16;;;;;;;;;;;8.50;53.80;;;;;;2349994;57;20129;-76
2022/03/05 13:22:42;;;;;;;;;;;8.50;53.50;;;;;;2350217;57;20107;-76
2022/03/05 13:25:09;;;;;;;;;;;8.50;53.30;;;;;;2349610;57;20342;-76
2022/03/05 13:27:36;;;;;;;;;;;8.50;53.10;;;;;;2349757;57;20137;-77
2022/03/05 13:30:08;;;;;;;;;;;8.50;53.20;;;;;;2349647;57;20362;-76
2022/03/05 13:32:44;;;;;;;;;;;8.50;52.50;;;;;;2350135;57;20125;-76
2022/03/05 13:35:11;;;;;;;;;;;8.50;52.40;;;;;;2350081;57;20084;-76
2022/03/05 13:37:38;;;;;;;;;;;8.50;52.40;;;;;;2349844;57;20310;-76
2022/03/05 13:40:05;;;;;;;;;;;8.50;52.00;;;;;;2349352;57;20075;-76
2022/03/05 13:42:33;;;;;;;;;;;8.50;52.40;;;;;;2349595;57;20154;-76
2022/03/05 13:45:00;;;;;;;;;;;8.50;52.40;;;;;;2597648;53;20058;-76
2022/03/05 13:47:27;;;;;;;;;;;8.50;52.60;;;;;;2349817;57;20126;-76
2022/03/05 13:49:58;;;;;;;;;;;8.50;52.20;;;;;;2349887;57;20162;-76
2022/03/05 13:52:26;;;;;;;;;;;8.50;52.30;;;;;;2349558;57;20090;-76
2022/03/05 13:54:52;;;;;;;;;;;8.50;52.40;;;;;;2349915;57;20054;-76
2022/03/05 13:57:29;;;;;;;;;;;8.50;52.40;;;;;;2597783;53;20062;-76
2022/03/05 14:00:04;;;;;;;;;;;8.50;52.60;;;;;;2349731;57;20127;-76
2022/03/05 14:02:31;;;;;;;;;;;8.40;52.40;;;;;;2595743;52;20051;-76
2022/03/05 14:04:58;;;;;;;;;;;8.40;52.20;;;;;;2350074;57;20070;-76
2022/03/05 14:07:25;;;;;;;;;;;8.40;52.10;;;;;;2349834;57;20085;-76
2022/03/05 14:09:51;;;;;;;;;;;8.30;52.20;;;;;;2348529;57;20089;-76
2022/03/05 14:12:18;;;;;;;;;;;8.30;52.10;;;;;;2347697;57;20807;-77
2022/03/05 14:14:48;;;;;;;;;;;8.30;52.10;;;;;;2349196;57;20078;-76
2022/03/05 14:17:25;;;;;;;;;;;8.20;52.40;;;;;;2596583;53;20126;-75
2022/03/05 14:20:02;;;;;;;;;;;8.20;52.60;;;;;;2348807;57;20121;-77
2022/03/05 14:22:34;;;;;;;;;;;8.20;52.60;;;;;;2349113;57;20102;-77
2022/03/05 14:25:00;;;;;;;;;;;8.20;52.80;;;;;;2596375;53;20336;-78
2022/03/05 14:27:27;;;;;;;;;;;8.20;52.70;;;;;;2349350;57;20055;-77
2022/03/05 14:29:53;;;;;;;;;;;8.20;52.80;;;;;;2349179;57;20079;-77
2022/03/05 14:32:20;;;;;;;;;;;8.10;52.80;;;;;;2596799;52;20325;-76
2022/03/05 14:34:46;;;;;;;;;;;8.10;52.80;;;;;;2348947;57;20078;-77
2022/03/05 14:37:12;;;;;;;;;;;8.10;52.50;;;;;;2349366;57;20106;-76
2022/03/05 14:39:39;;;;;;;;;;;8.10;52.70;;;;;;2349025;57;20325;-76
2022/03/05 14:42:07;;;;;;;;;;;8.10;52.80;;;;;;2348737;57;20055;-76
2022/03/05 14:44:33;;;;;;;;;;;8.10;52.80;;;;;;2349587;57;20126;-76
2022/03/05 14:47:00;;;;;;;;;;;8.10;52.80;;;;;;2349467;57;20082;-76
2022/03/05 14:49:26;;;;;;;;;;;8.10;52.80;;;;;;2349175;57;20186;-76
2022/03/05 14:51:54;;;;;;;;;;;8.10;52.80;;;;;;2349035;57;20090;-75
2022/03/05 14:54:21;;;;;;;;;;;8.00;52.80;;;;;;2349574;57;20082;-76
2022/03/05 14:56:47;;;;;;;;;;;8.10;52.70;;;;;;2348578;57;20086;-76
2022/03/05 14:59:14;;;;;;;;;;;8.10;52.60;;;;;;2347983;57;20066;-76
2022/03/05 15:01:40;;;;;;;;;;;8.10;52.60;;;;;;2348661;57;20078;-76
2022/03/05 15:04:07;;;;;;;;;;;8.20;52.60;;;;;;2349639;57;20319;-76
2022/03/05 15:06:34;;;;;;;;;;;8.20;53.20;;;;;;2349428;57;20102;-75